createdAt,value
2023-02-14T00:00:04.132Z,6.85
2023-02-14T00:02:31.871Z,6.91
2023-02-14T00:04:59.978Z,6.78
2023-02-14T00:07:27.765Z,6.78
2023-02-14T00:21:50.171Z,6.67
2023-02-14T00:24:20.801Z,6.67
2023-02-14T00:26:48.731Z,6.70
2023-02-14T00:29:19.789Z,6.49
2023-02-14T00:31:47.582Z,6.59
2023-02-14T00:34:16.876Z,6.55
2023-02-14T00:36:45.261Z,6.50
2023-02-14T00:39:15.901Z,6.66
2023-02-14T00:41:43.785Z,6.68
2023-02-14T00:44:13.276Z,6.71
2023-02-14T00:46:41.000Z,6.66
2023-02-14T00:49:09.280Z,6.67
2023-02-14T00:51:36.967Z,6.70
2023-02-14T00:54:05.127Z,6.79
2023-02-14T00:56:34.422Z,6.67
2023-02-14T00:59:02.602Z,6.63
2023-02-14T01:01:30.036Z,6.65
2023-02-14T01:03:58.045Z,6.56
2023-02-14T01:06:28.867Z,6.62
2023-02-14T01:08:56.993Z,6.74
2023-02-14T01:11:25.583Z,6.74
2023-02-14T01:13:57.295Z,6.61
2023-02-14T01:16:26.681Z,6.49
2023-02-14T01:18:55.098Z,6.54
2023-02-14T01:21:25.938Z,6.31
2023-02-14T01:23:56.168Z,6.33
2023-02-14T01:26:25.145Z,6.41
2023-02-14T01:28:53.778Z,6.29
2023-02-14T01:31:28.495Z,6.24
2023-02-14T01:33:57.901Z,6.15
2023-02-14T01:36:27.091Z,6.25
2023-02-14T01:38:57.802Z,6.36
2023-02-14T01:41:27.981Z,6.34
2023-02-14T01:43:59.443Z,6.39
2023-02-14T01:46:33.438Z,6.56
2023-02-14T01:49:04.876Z,6.54
2023-02-14T01:51:34.867Z,6.58
2023-02-14T01:54:06.010Z,6.29
2023-02-14T01:56:38.144Z,6.21
2023-02-14T01:59:09.956Z,6.26
2023-02-14T02:01:40.398Z,6.22
2023-02-14T02:04:13.417Z,6.28
2023-02-14T02:06:45.341Z,6.28
2023-02-14T02:09:18.710Z,6.17
2023-02-14T02:11:46.461Z,6.18
2023-02-14T02:14:17.235Z,6.24
2023-02-14T02:17:12.669Z,6.30
2023-02-14T02:20:04.524Z,6.17
2023-02-14T02:23:12.322Z,6.16
2023-02-14T02:26:29.361Z,5.97
2023-02-14T02:29:20.890Z,6.12
2023-02-14T02:32:23.233Z,6.05
2023-02-14T02:35:15.401Z,5.97
2023-02-14T02:37:56.268Z,6.05
2023-02-14T02:40:36.211Z,6.16
2023-02-14T02:43:15.419Z,5.94
2023-02-14T02:45:51.666Z,5.76
2023-02-14T02:48:23.546Z,5.88
2023-02-14T02:50:56.570Z,5.96
2023-02-14T02:53:31.862Z,5.96
2023-02-14T02:56:03.864Z,6.05
2023-02-14T02:58:35.221Z,6.05
2023-02-14T03:01:17.424Z,6.01
2023-02-14T03:03:48.507Z,5.88
2023-02-14T03:06:17.659Z,5.94
2023-02-14T03:08:45.667Z,5.88
2023-02-14T03:11:14.277Z,5.99
2023-02-14T03:14:16.826Z,6.07
2023-02-14T03:16:59.134Z,5.94
2023-02-14T03:19:53.066Z,5.90
2023-02-14T03:22:34.575Z,5.99
2023-02-14T03:25:08.839Z,5.87
2023-02-14T03:27:41.633Z,5.60
2023-02-14T03:30:18.047Z,5.62
2023-02-14T03:32:51.477Z,5.70
2023-02-14T03:35:24.796Z,5.81
2023-02-14T03:38:00.818Z,5.67
2023-02-14T03:40:35.031Z,5.83
2023-02-14T03:43:07.548Z,5.92
2023-02-14T03:45:39.738Z,5.85
2023-02-14T03:48:12.127Z,5.94
2023-02-14T03:50:42.515Z,5.79
2023-02-14T03:53:13.077Z,5.81
2023-02-14T03:55:46.476Z,5.84
2023-02-14T03:58:19.455Z,5.85
2023-02-14T04:00:50.460Z,5.91
2023-02-14T04:03:20.439Z,5.99
2023-02-14T04:05:49.007Z,5.91
2023-02-14T04:08:23.076Z,5.92
2023-02-14T04:10:53.038Z,5.63
2023-02-14T04:13:21.083Z,5.63
2023-02-14T04:15:49.102Z,5.57
2023-02-14T04:18:16.724Z,5.49
2023-02-14T04:20:44.607Z,5.57
2023-02-14T04:23:12.267Z,5.71
2023-02-14T04:25:42.203Z,5.71
2023-02-14T04:28:09.885Z,5.53
2023-02-14T04:30:37.970Z,5.60
2023-02-14T04:33:05.964Z,5.62
2023-02-14T04:35:34.409Z,5.62
2023-02-14T04:38:02.005Z,5.49
2023-02-14T04:40:30.986Z,5.63
2023-02-14T04:43:00.103Z,5.60
2023-02-14T04:45:28.364Z,5.58
2023-02-14T04:47:56.027Z,5.75
2023-02-14T04:50:24.036Z,5.83
2023-02-14T04:52:54.520Z,5.79
2023-02-14T04:55:22.679Z,5.66
2023-02-14T04:57:50.343Z,5.59
2023-02-14T05:00:21.174Z,5.54
2023-02-14T05:02:48.765Z,5.54
2023-02-14T05:05:17.283Z,5.69
2023-02-14T05:07:44.881Z,5.54
2023-02-14T05:10:13.951Z,5.47
2023-02-14T05:12:41.956Z,5.50
2023-02-14T05:15:13.062Z,5.47
2023-02-14T05:17:42.137Z,5.44
2023-02-14T05:20:10.890Z,5.32
2023-02-14T05:22:38.553Z,5.32
2023-02-14T05:25:07.134Z,5.25
2023-02-14T05:27:37.221Z,5.29
2023-02-14T05:30:06.579Z,5.23
2023-02-14T05:32:34.276Z,5.29
2023-02-14T05:35:04.230Z,5.26
2023-02-14T05:37:31.863Z,5.33
2023-02-14T05:39:59.864Z,5.33
2023-02-14T05:42:27.622Z,5.28
2023-02-14T05:44:55.589Z,5.31
2023-02-14T05:47:23.142Z,5.30
2023-02-14T05:49:51.081Z,5.30
2023-02-14T05:52:20.383Z,5.35
2023-02-14T05:54:48.445Z,5.50
2023-02-14T05:57:16.075Z,5.62
2023-02-14T05:59:44.307Z,5.49
2023-02-14T06:02:12.277Z,5.57
2023-02-14T06:04:40.454Z,5.45
2023-02-14T06:07:08.548Z,5.47
2023-02-14T06:09:38.224Z,5.39
2023-02-14T06:12:07.027Z,5.42
2023-02-14T06:14:35.170Z,5.37
2023-02-14T06:17:03.017Z,5.31
2023-02-14T06:19:31.107Z,5.35
2023-02-14T06:21:58.735Z,5.43
2023-02-14T06:24:26.739Z,5.32
2023-02-14T06:26:55.861Z,5.28
2023-02-14T06:29:23.897Z,5.27
2023-02-14T06:31:51.560Z,5.33
2023-02-14T06:34:19.784Z,5.28
2023-02-14T06:36:47.362Z,5.29
2023-02-14T06:39:15.330Z,5.26
2023-02-14T06:41:42.955Z,5.30
2023-02-14T06:44:12.491Z,5.46
2023-02-14T06:46:40.106Z,5.34
2023-02-14T06:49:09.388Z,5.45
2023-02-14T06:51:36.997Z,5.51
2023-02-14T06:54:05.230Z,5.46
2023-02-14T06:56:32.957Z,5.51
2023-02-14T06:59:01.135Z,5.64
2023-02-14T07:01:30.214Z,5.70
2023-02-14T07:03:58.270Z,5.79
2023-02-14T07:06:26.062Z,5.78
2023-02-14T07:08:54.142Z,5.65
2023-02-14T07:11:21.709Z,5.66
2023-02-14T07:13:49.990Z,5.62
2023-02-14T07:16:17.633Z,5.63
2023-02-14T07:18:47.243Z,5.75
2023-02-14T07:21:14.950Z,5.76
2023-02-14T07:23:43.024Z,5.70
2023-02-14T07:26:10.477Z,5.63
2023-02-14T07:28:38.469Z,5.70
2023-02-14T07:31:06.817Z,5.82
2023-02-14T07:33:34.816Z,5.96
2023-02-14T07:36:08.375Z,6.13
2023-02-14T07:38:36.741Z,6.25
2023-02-14T07:41:04.567Z,5.93
2023-02-14T07:43:32.659Z,5.76
2023-02-14T07:46:01.010Z,5.66
2023-02-14T07:48:31.436Z,5.67
2023-02-14T07:51:01.263Z,5.68
2023-02-14T07:53:30.997Z,5.61
2023-02-14T07:55:58.586Z,5.76
2023-02-14T07:58:26.728Z,5.85
2023-02-14T08:00:55.200Z,5.99
2023-02-14T08:03:23.169Z,6.06
2023-02-14T08:05:50.841Z,5.96
2023-02-14T08:08:18.770Z,5.85
2023-02-14T08:10:48.126Z,5.87
2023-02-14T08:13:16.364Z,5.69
2023-02-14T08:15:44.198Z,5.81
2023-02-14T08:18:12.583Z,5.69
2023-02-14T08:20:40.074Z,5.79
2023-02-14T08:23:08.076Z,5.90
2023-02-14T08:25:35.889Z,5.98
2023-02-14T08:28:06.481Z,5.94
2023-02-14T08:30:36.625Z,5.99
2023-02-14T08:33:04.824Z,6.08
2023-02-14T08:35:32.875Z,6.08
2023-02-14T08:38:01.257Z,6.13
2023-02-14T08:40:29.112Z,6.13
2023-02-14T08:42:57.197Z,6.17
2023-02-14T08:45:26.278Z,6.19
2023-02-14T08:47:54.264Z,6.24
2023-02-14T08:50:22.132Z,6.33
2023-02-14T08:52:52.974Z,6.32
2023-02-14T08:55:20.564Z,6.30
2023-02-14T08:57:48.570Z,6.25
2023-02-14T09:00:16.914Z,6.21
2023-02-14T09:02:49.895Z,6.26
2023-02-14T09:05:17.929Z,6.25
2023-02-14T09:07:45.991Z,6.41
2023-02-14T09:10:13.670Z,6.31
2023-02-14T09:12:42.092Z,6.30
2023-02-14T09:15:11.063Z,6.36
2023-02-14T09:17:39.546Z,6.36
2023-02-14T09:20:11.170Z,6.33
2023-02-14T09:22:39.284Z,6.42
2023-02-14T09:25:07.052Z,6.48
2023-02-14T09:27:35.024Z,6.48
2023-02-14T09:30:02.878Z,6.49
2023-02-14T09:32:31.041Z,6.36
2023-02-14T09:34:58.657Z,6.42
2023-02-14T09:37:28.288Z,6.49
2023-02-14T09:39:55.829Z,6.34
2023-02-14T09:42:40.662Z,6.31
2023-02-14T09:45:13.262Z,6.34
2023-02-14T09:47:47.492Z,6.28
2023-02-14T09:50:22.328Z,6.29
2023-02-14T09:52:55.878Z,6.40
2023-02-14T09:55:27.119Z,6.43
2023-02-14T09:58:06.066Z,6.54
2023-02-14T10:00:37.862Z,6.54
2023-02-14T10:03:45.297Z,6.55
2023-02-14T10:06:27.004Z,6.43
2023-02-14T10:09:08.778Z,6.41
2023-02-14T10:11:36.491Z,6.49
2023-02-14T10:14:12.228Z,6.65
2023-02-14T10:16:45.412Z,6.58
2023-02-14T10:19:20.531Z,6.59
2023-02-14T10:21:54.517Z,6.63
2023-02-14T10:24:30.097Z,6.79
2023-02-14T10:29:45.665Z,6.72
2023-02-14T10:32:15.267Z,6.69
2023-02-14T10:34:47.457Z,6.67
2023-02-14T10:37:36.656Z,6.74
2023-02-14T10:40:30.379Z,6.94
2023-02-14T10:43:05.385Z,6.70
2023-02-14T10:45:41.911Z,6.58
2023-02-14T10:48:29.841Z,6.59
2023-02-14T10:51:04.662Z,6.73
2023-02-14T10:53:39.108Z,6.85
2023-02-14T10:56:17.627Z,6.95
2023-02-14T10:58:46.789Z,6.95
2023-02-14T11:01:17.142Z,6.89
2023-02-14T11:03:53.647Z,6.92
2023-02-14T11:06:21.799Z,7.03
2023-02-14T11:08:49.308Z,7.13
2023-02-14T11:11:23.338Z,7.33
2023-02-14T11:13:51.097Z,7.29
2023-02-14T11:16:30.129Z,7.21
2023-02-14T11:19:10.654Z,7.35
2023-02-14T11:21:39.405Z,7.41
2023-02-14T11:24:17.560Z,7.35
2023-02-14T11:26:49.963Z,7.33
2023-02-14T11:29:25.275Z,7.38
2023-02-14T11:31:53.612Z,7.25
2023-02-14T11:34:33.550Z,7.19
2023-02-14T11:37:01.536Z,7.30
2023-02-14T11:39:31.782Z,7.53
2023-02-14T11:42:03.537Z,7.46
2023-02-14T11:44:33.190Z,7.47
2023-02-14T11:47:20.441Z,7.49
2023-02-14T11:49:58.935Z,7.45
2023-02-14T11:52:28.198Z,7.52
2023-02-14T11:54:57.240Z,7.42
2023-02-14T11:57:31.739Z,7.44
2023-02-14T12:00:02.046Z,7.60
2023-02-14T12:02:36.768Z,7.69
2023-02-14T12:05:07.545Z,7.54
2023-02-14T12:07:37.802Z,7.30
2023-02-14T12:10:16.234Z,7.48
2023-02-14T12:12:52.489Z,7.58
2023-02-14T12:15:35.627Z,7.90
2023-02-14T12:18:33.758Z,7.95
2023-02-14T12:21:06.692Z,8.16
2023-02-14T12:23:42.253Z,8.11
2023-02-14T12:26:23.969Z,8.30
2023-02-14T12:29:02.040Z,8.24
2023-02-14T12:31:30.483Z,8.25
2023-02-14T12:33:58.786Z,8.23
2023-02-14T12:36:42.230Z,8.06
2023-02-14T12:39:18.387Z,8.17
2023-02-14T12:41:55.359Z,8.04
2023-02-14T12:44:34.976Z,7.86
2023-02-14T12:47:16.890Z,8.01
2023-02-14T12:50:12.156Z,8.24
2023-02-14T12:53:02.539Z,8.25
2023-02-14T12:55:41.062Z,8.17
2023-02-14T12:58:18.467Z,8.11
2023-02-14T13:00:59.093Z,8.08
2023-02-14T13:03:57.552Z,8.26
2023-02-14T13:06:29.472Z,8.09
2023-02-14T13:09:18.545Z,8.05
2023-02-14T13:11:58.184Z,8.00
2023-02-14T13:14:56.227Z,7.94
2023-02-14T13:17:30.718Z,7.79
2023-02-14T13:20:18.207Z,7.89
2023-02-14T13:22:47.924Z,7.90
2023-02-14T13:25:25.306Z,7.84
2023-02-14T13:27:53.715Z,7.73
2023-02-14T13:30:28.917Z,7.75
2023-02-14T13:33:01.914Z,7.78
2023-02-14T13:35:30.214Z,7.77
2023-02-14T13:38:03.631Z,7.75
2023-02-14T13:40:32.406Z,7.81
2023-02-14T13:43:01.358Z,7.77
2023-02-14T13:46:04.946Z,7.89
2023-02-14T13:48:34.096Z,7.87
2023-02-14T13:51:03.772Z,7.71
2023-02-14T13:53:35.508Z,7.64
2023-02-14T13:56:05.136Z,7.58
2023-02-14T13:58:34.327Z,7.54
2023-02-14T14:01:31.490Z,7.51
2023-02-14T14:04:03.093Z,7.41
2023-02-14T14:06:51.033Z,7.44
2023-02-14T14:09:48.486Z,7.53
2023-02-14T14:12:37.590Z,7.67
2023-02-14T14:15:17.798Z,7.76
2023-02-14T14:17:48.359Z,7.82
2023-02-14T14:20:48.300Z,7.60
2023-02-14T14:23:36.719Z,7.39
2023-02-14T14:26:30.163Z,7.40
2023-02-14T14:28:58.852Z,7.49
2023-02-14T14:31:28.093Z,7.39
2023-02-14T14:33:59.771Z,7.62
2023-02-14T14:36:29.851Z,7.48
2023-02-14T14:38:57.386Z,7.39
2023-02-14T14:41:29.455Z,7.27
2023-02-14T14:43:58.943Z,7.31
2023-02-14T14:46:27.036Z,7.40
2023-02-14T14:48:56.101Z,7.35
2023-02-14T14:51:27.224Z,7.41
2023-02-14T14:53:58.660Z,7.59
2023-02-14T14:56:30.028Z,7.51
2023-02-14T14:58:58.324Z,7.56
2023-02-14T15:01:32.217Z,7.64
2023-02-14T15:04:12.325Z,7.77
2023-02-14T15:06:40.703Z,7.78
2023-02-14T15:09:22.356Z,7.59
2023-02-14T15:11:53.621Z,7.19
2023-02-14T15:14:24.398Z,6.99
2023-02-14T15:16:55.045Z,7.19
2023-02-14T15:19:28.581Z,7.00
2023-02-14T15:21:56.832Z,7.04
2023-02-14T15:24:26.326Z,7.39
2023-02-14T15:26:54.399Z,7.48
2023-02-14T15:29:24.821Z,7.50
2023-02-14T15:31:53.409Z,7.65
2023-02-14T15:34:24.284Z,7.61
2023-02-14T15:36:54.336Z,7.55
2023-02-14T15:39:28.494Z,7.50
2023-02-14T15:41:56.546Z,7.39
2023-02-14T15:44:26.066Z,7.16
2023-02-14T15:46:56.750Z,7.18
2023-02-14T15:49:31.633Z,7.30
2023-02-14T15:52:02.287Z,7.05
2023-02-14T15:54:35.637Z,6.89
2023-02-14T15:57:04.687Z,6.39
2023-02-14T15:59:34.858Z,6.27
2023-02-14T16:02:16.023Z,6.23
2023-02-14T16:04:43.857Z,6.29
2023-02-14T16:07:24.413Z,6.56
2023-02-14T16:10:20.032Z,6.77
2023-02-14T16:12:57.588Z,7.03
2023-02-14T16:15:26.996Z,7.19
2023-02-14T16:17:54.935Z,7.25
2023-02-14T16:20:29.801Z,7.24
2023-02-14T16:23:24.133Z,7.20
2023-02-14T16:25:53.538Z,7.19
2023-02-14T16:28:21.539Z,6.84
2023-02-14T16:30:55.249Z,6.84
2023-02-14T16:33:26.265Z,6.31
2023-02-14T16:35:54.881Z,6.35
2023-02-14T16:38:23.058Z,6.02
2023-02-14T16:40:54.140Z,5.92
2023-02-14T16:43:22.278Z,5.77
2023-02-14T16:45:49.853Z,5.81
2023-02-14T16:48:17.849Z,6.10
2023-02-14T16:50:46.483Z,6.12
2023-02-14T16:53:24.206Z,6.05
2023-02-14T16:55:56.124Z,5.65
2023-02-14T16:58:29.101Z,5.28
2023-02-14T17:00:56.705Z,5.36
2023-02-14T17:03:24.629Z,5.79
2023-02-14T17:05:52.647Z,5.99
2023-02-14T17:08:20.729Z,5.99
2023-02-14T17:10:48.770Z,5.76
2023-02-14T17:13:22.792Z,5.69
2023-02-14T17:15:50.955Z,5.61
2023-02-14T17:18:21.669Z,5.55
2023-02-14T17:20:49.722Z,5.36
2023-02-14T17:23:17.857Z,5.29
2023-02-14T17:25:45.360Z,5.53
2023-02-14T17:28:13.616Z,5.73
2023-02-14T17:30:42.717Z,5.66
2023-02-14T17:33:10.817Z,5.35
2023-02-14T17:35:38.671Z,5.39
2023-02-14T17:38:06.802Z,5.55
2023-02-14T17:40:34.679Z,5.72
2023-02-14T17:43:02.787Z,5.61
2023-02-14T17:45:30.333Z,5.43
2023-02-14T17:48:00.147Z,5.45
2023-02-14T17:50:28.019Z,5.22
2023-02-14T17:52:57.063Z,4.90
2023-02-14T17:55:25.007Z,4.84
2023-02-14T17:57:53.334Z,4.67
2023-02-14T18:00:22.454Z,4.89
2023-02-14T18:02:50.651Z,5.06
2023-02-14T18:05:20.212Z,5.26
2023-02-14T18:07:48.423Z,5.38
2023-02-14T18:10:16.378Z,5.16
2023-02-14T18:12:44.596Z,4.96
2023-02-14T18:15:12.619Z,4.83
2023-02-14T18:17:40.738Z,4.97
2023-02-14T18:20:09.483Z,4.95
2023-02-14T18:22:39.034Z,4.85
2023-02-14T18:25:07.048Z,5.07
2023-02-14T18:27:35.257Z,5.18
2023-02-14T18:30:03.024Z,5.23
2023-02-14T18:32:31.077Z,5.06
2023-02-14T18:34:58.667Z,5.30
2023-02-14T18:37:26.619Z,5.55
2023-02-14T18:39:55.738Z,5.66
2023-02-14T18:42:23.658Z,5.58
2023-02-14T18:44:51.218Z,5.68
2023-02-14T18:47:19.204Z,5.63
2023-02-14T18:49:46.876Z,5.35
2023-02-14T18:52:14.782Z,5.28
2023-02-14T18:54:45.178Z,5.28
2023-02-14T18:57:14.514Z,5.21
2023-02-14T18:59:42.160Z,5.22
2023-02-14T19:02:10.141Z,5.20
2023-02-14T19:04:37.773Z,4.82
2023-02-14T19:07:05.835Z,4.58
2023-02-14T19:09:33.555Z,4.61
2023-02-14T19:12:01.766Z,4.64
2023-02-14T19:14:30.851Z,4.69
2023-02-14T19:16:58.909Z,4.72
2023-02-14T19:19:26.534Z,4.60
2023-02-14T19:21:54.756Z,4.70
2023-02-14T19:24:22.388Z,4.55
2023-02-14T19:26:50.368Z,4.47
2023-02-14T19:29:20.174Z,4.30
2023-02-14T19:31:51.428Z,4.22
2023-02-14T19:34:21.737Z,4.21
2023-02-14T19:36:51.328Z,4.22
2023-02-14T19:39:19.611Z,4.27
2023-02-14T19:41:49.990Z,3.90
2023-02-14T19:44:18.548Z,3.87
2023-02-14T19:46:47.603Z,3.79
2023-02-14T19:49:19.132Z,3.90
2023-02-14T19:51:48.419Z,3.89
2023-02-14T19:54:16.146Z,3.86
2023-02-14T19:56:45.975Z,3.89
2023-02-14T19:59:15.122Z,3.91
2023-02-14T20:01:44.436Z,3.95
2023-02-14T20:04:18.282Z,3.86
2023-02-14T20:06:46.900Z,3.71
2023-02-14T20:09:15.010Z,3.68
2023-02-14T20:11:45.195Z,3.67
2023-02-14T20:14:13.951Z,3.73
2023-02-14T20:16:41.966Z,3.73
2023-02-14T20:19:11.674Z,3.60
2023-02-14T20:21:41.450Z,3.63
2023-02-14T20:24:11.161Z,3.49
2023-02-14T20:26:39.488Z,3.39
2023-02-14T20:29:08.482Z,3.27
2023-02-14T20:31:40.728Z,2.96
2023-02-14T20:34:09.093Z,2.91
2023-02-14T20:36:37.549Z,2.83
2023-02-14T20:39:09.208Z,2.88
2023-02-14T20:41:37.498Z,2.87
2023-02-14T20:44:07.476Z,2.69
2023-02-14T20:46:35.998Z,2.78
2023-02-14T20:49:04.037Z,2.68
2023-02-14T20:51:32.698Z,2.64
2023-02-14T20:54:03.045Z,2.64
2023-02-14T20:56:32.989Z,2.61
2023-02-14T20:59:00.870Z,2.49
2023-02-14T21:01:29.342Z,2.43
2023-02-14T21:03:57.477Z,2.36
2023-02-14T21:06:27.396Z,2.33
2023-02-14T21:08:55.425Z,2.31
2023-02-14T21:11:24.632Z,2.23
2023-02-14T21:13:58.099Z,2.25
2023-02-14T21:16:28.756Z,2.15
2023-02-14T21:18:58.414Z,2.11
2023-02-14T21:21:28.270Z,2.05
2023-02-14T21:23:56.071Z,2.19
2023-02-14T21:26:24.679Z,2.07
2023-02-14T21:28:52.295Z,2.03
2023-02-14T21:31:22.031Z,2.02
2023-02-14T21:33:50.113Z,1.98
2023-02-14T21:36:19.732Z,1.91
2023-02-14T21:38:47.331Z,1.85
2023-02-14T21:41:17.109Z,1.87
2023-02-14T21:43:46.539Z,1.78
2023-02-14T21:46:16.727Z,1.70
2023-02-14T21:48:47.690Z,1.66
2023-02-14T21:51:15.889Z,1.63
2023-02-14T21:53:43.885Z,1.49
2023-02-14T21:56:13.149Z,1.41
2023-02-14T21:58:41.292Z,1.41
2023-02-14T22:01:16.098Z,1.38
2023-02-14T22:03:45.450Z,1.29
2023-02-14T22:06:13.849Z,1.30
2023-02-14T22:08:42.025Z,1.31
2023-02-14T22:11:15.584Z,1.30
2023-02-14T22:13:43.245Z,1.33
2023-02-14T22:16:13.974Z,1.29
2023-02-14T22:18:43.578Z,1.34
2023-02-14T22:21:16.104Z,1.39
2023-02-14T22:23:44.368Z,1.30
2023-02-14T22:26:16.808Z,1.24
2023-02-14T22:28:46.579Z,1.20
2023-02-14T22:31:15.998Z,1.17
2023-02-14T22:33:44.123Z,1.13
2023-02-14T22:36:13.898Z,1.14
2023-02-14T22:38:41.958Z,1.17
2023-02-14T22:41:11.771Z,1.24
2023-02-14T22:43:40.372Z,1.09
2023-02-14T22:46:10.282Z,1.16
2023-02-14T22:48:38.889Z,1.24
2023-02-14T22:51:08.612Z,1.23
2023-02-14T22:53:38.076Z,1.10
2023-02-14T22:56:14.631Z,1.13
2023-02-14T22:58:42.718Z,1.11
2023-02-14T23:01:14.739Z,1.12
2023-02-14T23:03:42.616Z,1.11
2023-02-14T23:06:11.895Z,1.00
2023-02-14T23:08:42.374Z,1.07
2023-02-14T23:11:12.748Z,1.09
2023-02-14T23:13:40.550Z,0.95
2023-02-14T23:16:09.460Z,0.98
2023-02-14T23:18:37.119Z,1.00
2023-02-14T23:21:12.410Z,1.01
2023-02-14T23:23:41.434Z,1.02
2023-02-14T23:26:09.403Z,0.99
2023-02-14T23:28:36.974Z,0.95
2023-02-14T23:31:05.242Z,1.01
2023-02-14T23:33:32.796Z,1.05
2023-02-14T23:36:03.856Z,1.02
2023-02-14T23:38:31.708Z,1.10
2023-02-14T23:41:08.878Z,1.05
2023-02-14T23:43:36.558Z,1.09
2023-02-14T23:46:04.747Z,1.05
2023-02-14T23:48:32.464Z,1.05
2023-02-14T23:51:00.396Z,1.10
2023-02-14T23:53:28.034Z,1.29
2023-02-14T23:56:02.726Z,1.30
2023-02-14T23:58:30.718Z,1.34
